Time;durP1;ratioP1;P1;durP2;ratioP2;P2;SDS_P1;SDS_P2;PMS_P1;PMS_P2;Temp;Humidity;BMP_temperature;BMP_pressure;BME280_temperature;BME280_humidity;BME280_pressure;Samples;Min_cycle;Max_cycle;Signal;HPM_P1;HPM_P2
2022/11/29 00:03:14;;;;;;;60.90;25.60;;;;;;;3.84;99.00;101169.80;661558;1310;139187;-74
2022/11/29 00:18:18;;;;;;;66.30;29.80;;;;;;;3.79;98.53;101166.89;661388;1312;138465;-75
2022/11/29 00:33:21;;;;;;;65.30;27.00;;;;;;;3.71;97.74;101162.61;661571;1310;139563;-74
2022/11/29 00:48:31;;;;;;;54.10;24.80;;;;;;;3.72;97.69;101162.93;661405;1310;138598;-74
2022/11/29 01:03:35;;;;;;;122.90;39.10;;;;;;;3.66;97.23;101154.02;661282;1310;138797;-74
2022/11/29 01:18:38;;;;;;;94.70;31.60;;;;;;;3.56;96.58;101152.90;661121;1309;139321;-74
2022/11/29 01:33:42;;;;;;;59.00;24.70;;;;;;;3.41;96.43;101150.45;661302;1310;138539;-74
2022/11/29 01:48:46;;;;;;;67.30;25.30;;;;;;;3.30;96.48;101149.00;661331;1305;138670;-74
2022/11/29 02:03:49;;;;;;;53.50;23.90;;;;;;;3.40;96.19;101146.48;661822;1310;138464;-75
2022/11/29 02:19:08;;;;;;;52.30;23.20;;;;;;;3.35;95.75;101140.84;661736;1302;138557;-74
2022/11/29 02:34:17;;;;;;;50.10;24.30;;;;;;;3.31;96.12;101134.61;661676;1304;165224;-74
2022/11/29 02:49:30;;;;;;;51.80;22.00;;;;;;;3.30;96.07;101142.10;661215;1310;138826;-75
2022/11/29 03:05:05;;;;;;;49.50;21.00;;;;;;;3.29;95.89;101149.41;661588;1307;138508;-74
2022/11/29 03:20:28;;;;;;;48.60;20.20;;;;;;;3.29;95.70;101157.54;661234;1310;138636;-75
2022/11/29 03:35:39;;;;;;;48.20;21.70;;;;;;;3.22;96.28;101155.22;661331;1310;141052;-74
2022/11/29 03:50:54;;;;;;;45.70;20.20;;;;;;;3.24;96.61;101157.59;661134;1309;138685;-74
2022/11/29 04:06:12;;;;;;;49.90;20.70;;;;;;;3.19;96.84;101165.05;661611;1308;138625;-74
2022/11/29 04:21:28;;;;;;;46.90;20.60;;;;;;;3.19;96.92;101170.58;661694;1306;138646;-74
2022/11/29 04:36:50;;;;;;;47.90;21.30;;;;;;;3.17;96.87;101186.58;661223;1310;138708;-74
2022/11/29 04:52:07;;;;;;;46.30;19.10;;;;;;;3.02;97.45;101207.23;661458;1310;138414;-75
2022/11/29 05:07:28;;;;;;;51.80;21.00;;;;;;;3.25;96.73;101218.03;661028;1310;138881;-74
2022/11/29 05:22:45;;;;;;;58.60;24.50;;;;;;;3.21;96.29;101228.94;661596;1308;138545;-74
2022/11/29 05:37:53;;;;;;;50.00;22.00;;;;;;;3.17;95.94;101233.98;661104;1312;138509;-74
2022/11/29 05:53:19;;;;;;;56.40;23.60;;;;;;;3.16;95.93;101237.46;661588;1310;138897;-74
2022/11/29 06:08:41;;;;;;;63.20;24.90;;;;;;;3.12;95.81;101242.10;660921;1306;138632;-74
2022/11/29 06:23:54;;;;;;;84.40;31.00;;;;;;;3.18;95.52;101255.36;661158;1310;138920;-74
2022/11/29 06:38:58;;;;;;;93.20;39.40;;;;;;;3.14;95.40;101268.13;661216;1311;139547;-74
2022/11/29 06:54:20;;;;;;;54.30;25.30;;;;;;;3.08;95.42;101269.92;661330;1310;138626;-74
2022/11/29 07:09:29;;;;;;;131.70;60.10;;;;;;;3.06;95.43;101278.48;661492;1300;139536;-74
2022/11/29 07:24:40;;;;;;;74.60;31.80;;;;;;;3.16;95.31;101293.63;660979;1304;140526;-74
2022/11/29 07:39:54;;;;;;;167.40;62.40;;;;;;;3.15;95.24;101301.79;661204;1310;138606;-73
2022/11/29 07:54:58;;;;;;;84.30;36.20;;;;;;;3.10;95.34;101319.98;661255;1298;138727;-74
2022/11/29 08:10:01;;;;;;;71.60;30.70;;;;;;;3.11;95.70;101325.98;661307;1310;138565;-74
2022/11/29 08:25:06;;;;;;;68.00;30.80;;;;;;;3.13;95.29;101329.37;661380;1310;138688;-74
2022/11/29 08:40:11;;;;;;;144.40;53.10;;;;;;;3.01;95.31;101326.02;661543;1310;138564;-73
2022/11/29 08:55:16;;;;;;;90.60;38.10;;;;;;;2.77;96.78;101327.30;661561;1306;139259;-73
2022/11/29 09:10:20;;;;;;;88.70;38.00;;;;;;;2.67;97.68;101325.80;660743;1311;138589;-73
2022/11/29 09:25:23;;;;;;;332.30;111.90;;;;;;;2.64;97.86;101324.88;661401;1306;138814;-73
2022/11/29 09:40:40;;;;;;;261.90;98.70;;;;;;;2.75;97.97;101322.04;661532;1309;138904;-73
2022/11/29 09:56:07;;;;;;;336.90;124.50;;;;;;;2.80;97.65;101314.23;661348;1310;138651;-73
2022/11/29 10:11:19;;;;;;;129.90;50.90;;;;;;;2.90;97.62;101316.27;661078;1296;138974;-73
2022/11/29 10:26:23;;;;;;;113.40;46.80;;;;;;;3.13;96.43;101314.48;661396;1310;139321;-74
2022/11/29 10:41:34;;;;;;;163.10;54.60;;;;;;;3.26;95.45;101321.91;661587;1310;140715;-74
2022/11/29 10:56:40;;;;;;;126.00;41.10;;;;;;;3.30;94.99;101328.66;661260;1310;138845;-73
2022/11/29 11:11:51;;;;;;;222.20;68.10;;;;;;;3.29;94.81;101337.02;661697;1298;138684;-74
2022/11/29 11:26:56;;;;;;;143.10;57.30;;;;;;;3.26;94.70;101340.77;661182;1298;138752;-74
2022/11/29 11:57:25;;;;;;;113.80;36.30;;;;;;;3.30;94.24;101351.69;661524;1310;138816;-74
2022/11/29 12:12:40;;;;;;;83.40;31.40;;;;;;;3.33;93.82;101361.94;661693;1310;138730;-74
2022/11/29 12:27:44;;;;;;;132.40;44.40;;;;;;;3.34;93.92;101359.65;661654;1310;138618;-74
2022/11/29 12:43:21;;;;;;;82.80;34.10;;;;;;;3.38;93.72;101360.14;661626;1304;138794;-75
2022/11/29 12:58:41;;;;;;;61.20;27.50;;;;;;;3.24;94.00;101366.27;661115;1310;138659;-74
2022/11/29 13:14:09;;;;;;;113.30;44.90;;;;;;;3.13;94.68;101376.75;661504;1310;138827;-74
2022/11/29 13:29:33;;;;;;;71.40;28.70;;;;;;;3.06;95.06;101384.09;661522;1310;138720;-76
2022/11/29 13:44:52;;;;;;;74.00;31.10;;;;;;;3.01;95.07;101388.08;661148;1310;138613;-76
2022/11/29 13:59:56;;;;;;;128.00;48.10;;;;;;;2.93;94.87;101398.05;661560;1307;138645;-76
2022/11/29 14:15:21;;;;;;;138.20;44.20;;;;;;;2.85;94.52;101410.45;661701;1305;138846;-74
2022/11/29 14:30:38;;;;;;;169.50;54.60;;;;;;;2.77;95.08;101412.14;661189;1310;238663;-74
2022/11/29 14:45:42;;;;;;;289.40;104.80;;;;;;;2.58;95.68;101414.89;661342;1310;138971;-75
2022/11/29 15:00:47;;;;;;;202.90;63.40;;;;;;;2.59;95.46;101422.46;661289;1310;138929;-75
2022/11/29 15:16:18;;;;;;;191.30;60.20;;;;;;;2.58;95.36;101426.30;661441;1305;138569;-76
2022/11/29 15:31:23;;;;;;;257.30;93.60;;;;;;;2.76;95.12;101430.84;662802;1303;138848;-76
2022/11/29 15:46:28;;;;;;;170.00;61.00;;;;;;;2.81;94.38;101430.83;661287;1302;138599;-75
2022/11/29 16:01:33;;;;;;;149.90;56.90;;;;;;;2.83;94.51;101444.73;661111;1310;138980;-76
2022/11/29 16:16:38;;;;;;;138.80;55.80;;;;;;;2.88;94.27;101452.52;661189;1310;139145;-76
2022/11/29 16:31:41;;;;;;;167.70;60.90;;;;;;;2.88;94.35;101461.84;661087;1305;138900;-76
2022/11/29 16:46:46;;;;;;;98.40;35.10;;;;;;;2.97;93.59;101465.50;661505;1310;138618;-76
2022/11/29 17:01:50;;;;;;;130.70;45.60;;;;;;;3.01;93.15;101468.61;661405;1310;138541;-76
2022/11/29 17:16:55;;;;;;;149.80;49.60;;;;;;;3.12;92.36;101471.48;661437;1310;138752;-76
2022/11/29 17:31:59;;;;;;;140.40;50.50;;;;;;;3.06;92.15;101475.36;661272;1302;138925;-77
2022/11/29 17:47:02;;;;;;;163.50;62.60;;;;;;;3.09;92.00;101483.70;661401;1310;138917;-77
2022/11/29 18:02:06;;;;;;;109.00;44.40;;;;;;;3.16;91.47;101490.20;661413;1310;139270;-77
2022/11/29 18:17:10;;;;;;;48.00;24.20;;;;;;;3.15;91.28;101493.85;661510;1310;138710;-77
2022/11/29 18:32:14;;;;;;;77.80;32.10;;;;;;;3.16;91.10;101499.86;661216;1310;138633;-76
2022/11/29 18:47:17;;;;;;;107.20;40.50;;;;;;;3.08;91.27;101499.15;661183;1310;138683;-76
2022/11/29 19:02:21;;;;;;;85.10;31.10;;;;;;;3.04;91.54;101506.87;661282;1310;138989;-76
2022/11/29 19:17:25;;;;;;;100.60;38.60;;;;;;;3.09;91.13;101512.75;661237;1310;138664;-76
2022/11/29 19:32:28;;;;;;;83.40;35.80;;;;;;;3.08;90.96;101515.58;660243;1312;138761;-76
2022/11/29 19:47:31;;;;;;;84.40;32.90;;;;;;;3.13;90.93;101519.16;660976;1311;138565;-76
2022/11/29 20:02:35;;;;;;;85.10;35.80;;;;;;;3.07;90.76;101521.81;660504;1312;138580;-76
2022/11/29 20:17:38;;;;;;;68.40;28.50;;;;;;;3.14;90.34;101533.67;660450;1299;138804;-77
2022/11/29 20:32:43;;;;;;;68.00;29.70;;;;;;;3.12;90.32;101537.02;660560;1298;138370;-76
2022/11/29 20:47:52;;;;;;;82.00;34.60;;;;;;;3.11;90.03;101536.37;660655;1291;138586;-77
2022/11/29 21:02:56;;;;;;;71.30;36.10;;;;;;;3.13;90.02;101534.20;660992;1310;138614;-76
2022/11/29 21:17:59;;;;;;;58.60;27.70;;;;;;;3.12;90.04;101539.60;660857;1295;138615;-76
2022/11/29 21:33:04;;;;;;;47.50;22.30;;;;;;;3.14;90.28;101547.65;660743;1311;138708;-76
2022/11/29 21:48:33;;;;;;;47.70;22.60;;;;;;;3.14;90.16;101554.92;660944;1305;138523;-76
2022/11/29 22:03:32;;;;;;;51.30;23.60;;;;;;;3.08;90.16;101557.91;661130;1312;138454;-76
2022/11/29 22:18:35;;;;;;;60.30;25.70;;;;;;;3.05;90.20;101554.90;660862;1309;139170;-76
2022/11/29 22:33:39;;;;;;;51.60;25.50;;;;;;;3.04;90.44;101553.58;661646;1309;138681;-76
2022/11/29 22:48:44;;;;;;;47.60;22.30;;;;;;;3.08;90.34;101551.52;661302;1305;138612;-76
2022/11/29 23:03:53;;;;;;;41.90;20.70;;;;;;;3.02;90.48;101554.30;661370;1310;138447;-76
2022/11/29 23:52:43;;;;;;;39.90;17.00;;;;;;;2.95;90.89;101565.65;661383;1310;138767;-76
